Allegany, New York
Current Conditions -  °F | °C
As of 1:15 AM on Friday 31 Oct 2014 (Local Time) from KOLE Reporting Station
Overcast Overcast  
Wind Chill: 36°   Ceiling: 3400
Heat Index: 36°   Visibility: 10mi
Dew Point: 36°   Wind: 3mph
Humidity: 100%   Direction: 180°S
Pressure: 29.99"   Gusts: NA
Location:  42.09°N, 78.49°W
Report Text: KOLE 310515Z AUTO 18003KT 10SM OVC034 02/02 A2999 RMK AO2
Loading
Personal Weather Stations






























Interactive Weather Map
Tropical Storm Tracking
New forecast layout! Learn more

10-Day Weather Forecast

Advertisements
Track Severe Weather on mobile